sensor_id;sensor_type;location;lat;lon;timestamp;P1;durP1;ratioP1;P2;durP2;ratioP2
4353;SDS011;11018;51.258;6.806;2023-05-29T00:00:04;7.55;;;4.28;;
4353;SDS011;11018;51.258;6.806;2023-05-29T00:02:32;5.10;;;4.03;;
4353;SDS011;11018;51.258;6.806;2023-05-29T00:04:58;7.40;;;4.40;;
4353;SDS011;11018;51.258;6.806;2023-05-29T00:07:23;8.17;;;4.30;;
4353;SDS011;11018;51.258;6.806;2023-05-29T00:09:49;8.07;;;3.97;;
4353;SDS011;11018;51.258;6.806;2023-05-29T00:12:14;7.15;;;4.05;;
4353;SDS011;11018;51.258;6.806;2023-05-29T00:14:40;7.63;;;3.90;;
4353;SDS011;11018;51.258;6.806;2023-05-29T00:17:06;8.00;;;3.90;;
4353;SDS011;11018;51.258;6.806;2023-05-29T00:19:31;9.87;;;4.20;;
4353;SDS011;11018;51.258;6.806;2023-05-29T00:21:57;10.18;;;4.40;;
4353;SDS011;11018;51.258;6.806;2023-05-29T00:24:22;7.07;;;4.30;;
4353;SDS011;11018;51.258;6.806;2023-05-29T00:26:48;7.33;;;4.00;;
4353;SDS011;11018;51.258;6.806;2023-05-29T00:29:13;6.90;;;4.00;;
4353;SDS011;11018;51.258;6.806;2023-05-29T00:31:40;8.32;;;4.10;;
4353;SDS011;11018;51.258;6.806;2023-05-29T00:34:05;8.43;;;3.93;;
4353;SDS011;11018;51.258;6.806;2023-05-29T00:36:31;5.30;;;4.00;;
4353;SDS011;11018;51.258;6.806;2023-05-29T00:38:56;7.20;;;4.00;;
4353;SDS011;11018;51.258;6.806;2023-05-29T00:41:22;8.32;;;4.65;;
4353;SDS011;11018;51.258;6.806;2023-05-29T00:43:48;6.38;;;4.00;;
4353;SDS011;11018;51.258;6.806;2023-05-29T00:46:14;10.82;;;4.35;;
4353;SDS011;11018;51.258;6.806;2023-05-29T00:48:43;7.00;;;4.13;;
4353;SDS011;11018;51.258;6.806;2023-05-29T00:51:10;5.78;;;4.32;;
4353;SDS011;11018;51.258;6.806;2023-05-29T00:53:37;7.40;;;4.60;;
4353;SDS011;11018;51.258;6.806;2023-05-29T00:56:05;8.68;;;4.40;;
4353;SDS011;11018;51.258;6.806;2023-05-29T00:58:32;7.55;;;4.10;;
4353;SDS011;11018;51.258;6.806;2023-05-29T01:00:58;7.95;;;4.40;;
4353;SDS011;11018;51.258;6.806;2023-05-29T01:03:23;8.48;;;4.05;;
4353;SDS011;11018;51.258;6.806;2023-05-29T01:05:49;9.88;;;4.15;;
4353;SDS011;11018;51.258;6.806;2023-05-29T01:08:17;7.90;;;4.30;;
4353;SDS011;11018;51.258;6.806;2023-05-29T01:10:43;12.00;;;4.60;;
4353;SDS011;11018;51.258;6.806;2023-05-29T01:13:14;10.70;;;4.65;;
4353;SDS011;11018;51.258;6.806;2023-05-29T01:15:54;12.32;;;4.65;;
4353;SDS011;11018;51.258;6.806;2023-05-29T01:18:31;7.70;;;4.20;;
4353;SDS011;11018;51.258;6.806;2023-05-29T01:21:07;11.00;;;4.38;;
4353;SDS011;11018;51.258;6.806;2023-05-29T01:26:38;8.85;;;4.78;;
4353;SDS011;11018;51.258;6.806;2023-05-29T01:29:10;10.18;;;4.00;;
4353;SDS011;11018;51.258;6.806;2023-05-29T01:31:38;12.00;;;5.07;;
4353;SDS011;11018;51.258;6.806;2023-05-29T01:34:05;13.90;;;4.80;;
4353;SDS011;11018;51.258;6.806;2023-05-29T01:36:31;13.38;;;5.30;;
4353;SDS011;11018;51.258;6.806;2023-05-29T01:38:57;11.73;;;4.83;;
4353;SDS011;11018;51.258;6.806;2023-05-29T01:41:24;12.32;;;5.20;;
4353;SDS011;11018;51.258;6.806;2023-05-29T01:43:51;11.65;;;4.80;;
4353;SDS011;11018;51.258;6.806;2023-05-29T01:46:17;12.88;;;5.20;;
4353;SDS011;11018;51.258;6.806;2023-05-29T01:48:45;11.73;;;4.78;;
4353;SDS011;11018;51.258;6.806;2023-05-29T01:51:11;9.20;;;5.20;;
4353;SDS011;11018;51.258;6.806;2023-05-29T01:53:38;14.30;;;4.93;;
4353;SDS011;11018;51.258;6.806;2023-05-29T01:56:05;12.07;;;4.75;;
4353;SDS011;11018;51.258;6.806;2023-05-29T01:58:31;13.52;;;4.75;;
4353;SDS011;11018;51.258;6.806;2023-05-29T02:00:59;11.07;;;4.65;;
4353;SDS011;11018;51.258;6.806;2023-05-29T02:03:25;14.60;;;5.50;;
4353;SDS011;11018;51.258;6.806;2023-05-29T02:05:54;15.07;;;6.30;;
4353;SDS011;11018;51.258;6.806;2023-05-29T02:08:20;10.13;;;5.00;;
4353;SDS011;11018;51.258;6.806;2023-05-29T02:10:46;12.70;;;4.87;;
4353;SDS011;11018;51.258;6.806;2023-05-29T02:13:11;13.87;;;5.40;;
4353;SDS011;11018;51.258;6.806;2023-05-29T02:15:37;10.57;;;5.00;;
4353;SDS011;11018;51.258;6.806;2023-05-29T02:18:03;13.30;;;4.75;;
4353;SDS011;11018;51.258;6.806;2023-05-29T02:20:28;16.17;;;5.00;;
4353;SDS011;11018;51.258;6.806;2023-05-29T02:22:54;16.63;;;5.60;;
4353;SDS011;11018;51.258;6.806;2023-05-29T02:25:19;9.57;;;4.80;;
4353;SDS011;11018;51.258;6.806;2023-05-29T02:27:45;10.47;;;5.10;;
4353;SDS011;11018;51.258;6.806;2023-05-29T02:30:10;12.90;;;5.57;;
4353;SDS011;11018;51.258;6.806;2023-05-29T02:32:36;16.97;;;5.30;;
4353;SDS011;11018;51.258;6.806;2023-05-29T02:35:02;14.50;;;5.10;;
4353;SDS011;11018;51.258;6.806;2023-05-29T02:37:28;12.30;;;5.00;;
4353;SDS011;11018;51.258;6.806;2023-05-29T02:39:54;15.30;;;5.20;;
4353;SDS011;11018;51.258;6.806;2023-05-29T02:42:19;14.63;;;5.13;;
4353;SDS011;11018;51.258;6.806;2023-05-29T02:44:45;16.13;;;5.78;;
4353;SDS011;11018;51.258;6.806;2023-05-29T02:47:11;16.10;;;5.25;;
4353;SDS011;11018;51.258;6.806;2023-05-29T02:49:36;16.02;;;5.00;;
4353;SDS011;11018;51.258;6.806;2023-05-29T02:52:02;17.73;;;5.20;;
4353;SDS011;11018;51.258;6.806;2023-05-29T02:54:27;14.40;;;5.13;;
4353;SDS011;11018;51.258;6.806;2023-05-29T02:56:53;18.60;;;5.10;;
4353;SDS011;11018;51.258;6.806;2023-05-29T02:59:19;14.73;;;4.80;;
4353;SDS011;11018;51.258;6.806;2023-05-29T03:01:44;15.57;;;5.05;;
4353;SDS011;11018;51.258;6.806;2023-05-29T03:04:12;13.63;;;4.70;;
4353;SDS011;11018;51.258;6.806;2023-05-29T03:06:37;13.93;;;4.60;;
4353;SDS011;11018;51.258;6.806;2023-05-29T03:09:03;15.77;;;4.57;;
4353;SDS011;11018;51.258;6.806;2023-05-29T03:11:32;19.25;;;5.20;;
4353;SDS011;11018;51.258;6.806;2023-05-29T03:13:58;18.40;;;5.10;;
4353;SDS011;11018;51.258;6.806;2023-05-29T03:16:24;19.05;;;4.80;;
4353;SDS011;11018;51.258;6.806;2023-05-29T03:18:50;22.83;;;4.82;;
4353;SDS011;11018;51.258;6.806;2023-05-29T03:21:15;21.07;;;4.97;;
4353;SDS011;11018;51.258;6.806;2023-05-29T03:23:41;17.50;;;5.30;;
4353;SDS011;11018;51.258;6.806;2023-05-29T03:26:07;20.02;;;5.57;;
4353;SDS011;11018;51.258;6.806;2023-05-29T03:28:33;14.43;;;4.10;;
4353;SDS011;11018;51.258;6.806;2023-05-29T03:30:59;19.90;;;5.18;;
4353;SDS011;11018;51.258;6.806;2023-05-29T03:33:25;18.20;;;5.28;;
4353;SDS011;11018;51.258;6.806;2023-05-29T03:35:50;21.00;;;4.45;;
4353;SDS011;11018;51.258;6.806;2023-05-29T03:38:16;19.60;;;5.32;;
4353;SDS011;11018;51.258;6.806;2023-05-29T03:40:42;16.13;;;4.80;;
4353;SDS011;11018;51.258;6.806;2023-05-29T03:43:07;22.42;;;5.20;;
4353;SDS011;11018;51.258;6.806;2023-05-29T03:45:33;22.88;;;4.82;;
4353;SDS011;11018;51.258;6.806;2023-05-29T03:47:58;18.35;;;4.97;;
4353;SDS011;11018;51.258;6.806;2023-05-29T03:50:24;20.57;;;5.07;;
4353;SDS011;11018;51.258;6.806;2023-05-29T03:52:49;17.57;;;4.37;;
4353;SDS011;11018;51.258;6.806;2023-05-29T03:55:15;21.00;;;5.30;;
4353;SDS011;11018;51.258;6.806;2023-05-29T03:57:41;14.85;;;4.50;;
4353;SDS011;11018;51.258;6.806;2023-05-29T04:00:07;16.02;;;4.53;;
4353;SDS011;11018;51.258;6.806;2023-05-29T04:02:35;20.07;;;4.83;;
4353;SDS011;11018;51.258;6.806;2023-05-29T04:05:02;19.27;;;4.80;;
4353;SDS011;11018;51.258;6.806;2023-05-29T04:07:28;19.67;;;4.30;;
4353;SDS011;11018;51.258;6.806;2023-05-29T04:09:54;21.80;;;4.97;;
4353;SDS011;11018;51.258;6.806;2023-05-29T04:12:19;19.37;;;5.70;;
4353;SDS011;11018;51.258;6.806;2023-05-29T04:14:45;20.40;;;5.27;;
4353;SDS011;11018;51.258;6.806;2023-05-29T04:17:10;22.50;;;5.57;;
4353;SDS011;11018;51.258;6.806;2023-05-29T04:19:36;27.03;;;5.63;;
4353;SDS011;11018;51.258;6.806;2023-05-29T04:22:02;21.25;;;4.90;;
4353;SDS011;11018;51.258;6.806;2023-05-29T04:24:27;22.77;;;5.32;;
4353;SDS011;11018;51.258;6.806;2023-05-29T04:26:53;22.63;;;5.00;;
4353;SDS011;11018;51.258;6.806;2023-05-29T04:29:18;16.13;;;4.40;;
4353;SDS011;11018;51.258;6.806;2023-05-29T04:31:44;17.40;;;5.00;;
4353;SDS011;11018;51.258;6.806;2023-05-29T04:34:10;15.32;;;4.70;;
4353;SDS011;11018;51.258;6.806;2023-05-29T04:36:35;22.92;;;4.32;;
4353;SDS011;11018;51.258;6.806;2023-05-29T04:39:04;20.33;;;4.72;;
4353;SDS011;11018;51.258;6.806;2023-05-29T04:41:31;25.00;;;5.17;;
4353;SDS011;11018;51.258;6.806;2023-05-29T04:43:57;26.57;;;5.37;;
4353;SDS011;11018;51.258;6.806;2023-05-29T04:46:23;18.48;;;4.80;;
4353;SDS011;11018;51.258;6.806;2023-05-29T04:48:50;21.33;;;5.00;;
4353;SDS011;11018;51.258;6.806;2023-05-29T04:51:18;27.63;;;6.27;;
4353;SDS011;11018;51.258;6.806;2023-05-29T04:53:45;20.30;;;5.63;;
4353;SDS011;11018;51.258;6.806;2023-05-29T04:56:11;23.98;;;5.78;;
4353;SDS011;11018;51.258;6.806;2023-05-29T04:58:37;23.25;;;5.13;;
4353;SDS011;11018;51.258;6.806;2023-05-29T05:01:03;26.75;;;4.70;;
4353;SDS011;11018;51.258;6.806;2023-05-29T05:03:29;23.52;;;5.22;;
4353;SDS011;11018;51.258;6.806;2023-05-29T05:06:02;22.10;;;5.20;;
4353;SDS011;11018;51.258;6.806;2023-05-29T05:08:28;25.02;;;5.40;;
4353;SDS011;11018;51.258;6.806;2023-05-29T05:10:54;19.42;;;4.85;;
4353;SDS011;11018;51.258;6.806;2023-05-29T05:13:20;20.67;;;4.60;;
4353;SDS011;11018;51.258;6.806;2023-05-29T05:15:46;18.48;;;5.43;;
4353;SDS011;11018;51.258;6.806;2023-05-29T05:18:11;20.67;;;4.73;;
4353;SDS011;11018;51.258;6.806;2023-05-29T05:20:37;24.17;;;5.30;;
4353;SDS011;11018;51.258;6.806;2023-05-29T05:23:02;16.80;;;4.93;;
4353;SDS011;11018;51.258;6.806;2023-05-29T05:25:28;21.90;;;5.37;;
4353;SDS011;11018;51.258;6.806;2023-05-29T05:27:54;19.98;;;4.30;;
4353;SDS011;11018;51.258;6.806;2023-05-29T05:30:19;17.23;;;4.60;;
4353;SDS011;11018;51.258;6.806;2023-05-29T05:32:45;21.77;;;4.75;;
4353;SDS011;11018;51.258;6.806;2023-05-29T05:35:10;20.40;;;4.90;;
4353;SDS011;11018;51.258;6.806;2023-05-29T05:37:36;23.08;;;5.07;;
4353;SDS011;11018;51.258;6.806;2023-05-29T05:40:02;20.63;;;5.53;;
4353;SDS011;11018;51.258;6.806;2023-05-29T05:42:31;19.10;;;4.95;;
4353;SDS011;11018;51.258;6.806;2023-05-29T05:44:57;20.20;;;5.30;;
4353;SDS011;11018;51.258;6.806;2023-05-29T05:47:22;20.80;;;4.80;;
4353;SDS011;11018;51.258;6.806;2023-05-29T05:49:48;22.23;;;5.27;;
4353;SDS011;11018;51.258;6.806;2023-05-29T05:52:16;21.20;;;5.17;;
4353;SDS011;11018;51.258;6.806;2023-05-29T05:54:42;23.80;;;4.88;;
4353;SDS011;11018;51.258;6.806;2023-05-29T05:57:08;20.80;;;4.72;;
4353;SDS011;11018;51.258;6.806;2023-05-29T05:59:34;16.77;;;4.20;;
4353;SDS011;11018;51.258;6.806;2023-05-29T06:01:59;16.40;;;4.20;;
4353;SDS011;11018;51.258;6.806;2023-05-29T06:04:25;16.40;;;5.03;;
4353;SDS011;11018;51.258;6.806;2023-05-29T06:06:51;17.93;;;4.60;;
4353;SDS011;11018;51.258;6.806;2023-05-29T06:09:16;15.57;;;5.07;;
4353;SDS011;11018;51.258;6.806;2023-05-29T06:11:42;21.48;;;5.25;;
4353;SDS011;11018;51.258;6.806;2023-05-29T06:14:08;21.65;;;5.18;;
4353;SDS011;11018;51.258;6.806;2023-05-29T06:16:34;21.40;;;4.93;;
4353;SDS011;11018;51.258;6.806;2023-05-29T06:18:59;15.95;;;4.70;;
4353;SDS011;11018;51.258;6.806;2023-05-29T06:21:25;21.88;;;5.97;;
4353;SDS011;11018;51.258;6.806;2023-05-29T06:23:51;24.05;;;5.13;;
4353;SDS011;11018;51.258;6.806;2023-05-29T06:26:17;22.20;;;5.70;;
4353;SDS011;11018;51.258;6.806;2023-05-29T06:28:43;21.40;;;5.37;;
4353;SDS011;11018;51.258;6.806;2023-05-29T06:31:08;19.73;;;6.43;;
4353;SDS011;11018;51.258;6.806;2023-05-29T06:33:35;18.57;;;5.00;;
4353;SDS011;11018;51.258;6.806;2023-05-29T06:36:02;17.77;;;4.50;;
4353;SDS011;11018;51.258;6.806;2023-05-29T06:38:28;16.27;;;4.60;;
4353;SDS011;11018;51.258;6.806;2023-05-29T06:40:53;18.25;;;4.70;;
4353;SDS011;11018;51.258;6.806;2023-05-29T06:43:19;15.50;;;4.80;;
4353;SDS011;11018;51.258;6.806;2023-05-29T06:45:44;16.93;;;4.03;;
4353;SDS011;11018;51.258;6.806;2023-05-29T06:48:10;18.80;;;5.13;;
4353;SDS011;11018;51.258;6.806;2023-05-29T06:50:35;20.50;;;4.97;;
4353;SDS011;11018;51.258;6.806;2023-05-29T06:53:01;20.63;;;5.53;;
4353;SDS011;11018;51.258;6.806;2023-05-29T06:55:27;18.77;;;4.23;;
4353;SDS011;11018;51.258;6.806;2023-05-29T06:57:52;18.17;;;5.30;;
4353;SDS011;11018;51.258;6.806;2023-05-29T07:00:18;20.27;;;5.23;;
4353;SDS011;11018;51.258;6.806;2023-05-29T07:02:44;20.23;;;4.90;;
4353;SDS011;11018;51.258;6.806;2023-05-29T07:05:09;22.27;;;5.27;;
4353;SDS011;11018;51.258;6.806;2023-05-29T07:07:35;13.80;;;5.30;;
4353;SDS011;11018;51.258;6.806;2023-05-29T07:10:00;16.85;;;4.93;;
4353;SDS011;11018;51.258;6.806;2023-05-29T07:12:26;17.20;;;4.90;;
4353;SDS011;11018;51.258;6.806;2023-05-29T07:14:51;16.10;;;4.93;;
4353;SDS011;11018;51.258;6.806;2023-05-29T07:17:17;18.00;;;5.10;;
4353;SDS011;11018;51.258;6.806;2023-05-29T07:19:43;18.43;;;5.00;;
4353;SDS011;11018;51.258;6.806;2023-05-29T07:22:08;14.80;;;4.70;;
4353;SDS011;11018;51.258;6.806;2023-05-29T07:24:34;21.52;;;5.80;;
4353;SDS011;11018;51.258;6.806;2023-05-29T07:26:59;15.75;;;4.72;;
4353;SDS011;11018;51.258;6.806;2023-05-29T07:29:25;17.38;;;5.57;;
4353;SDS011;11018;51.258;6.806;2023-05-29T07:31:50;16.87;;;4.70;;
4353;SDS011;11018;51.258;6.806;2023-05-29T07:34:16;16.50;;;4.50;;
4353;SDS011;11018;51.258;6.806;2023-05-29T07:36:58;19.50;;;5.03;;
4353;SDS011;11018;51.258;6.806;2023-05-29T07:39:25;21.13;;;5.68;;
4353;SDS011;11018;51.258;6.806;2023-05-29T07:41:50;20.23;;;5.10;;
4353;SDS011;11018;51.258;6.806;2023-05-29T07:44:16;18.97;;;4.60;;
4353;SDS011;11018;51.258;6.806;2023-05-29T07:46:42;17.30;;;5.40;;
4353;SDS011;11018;51.258;6.806;2023-05-29T07:49:07;19.55;;;5.30;;
4353;SDS011;11018;51.258;6.806;2023-05-29T07:51:33;21.10;;;4.70;;
4353;SDS011;11018;51.258;6.806;2023-05-29T07:53:58;17.97;;;5.17;;
4353;SDS011;11018;51.258;6.806;2023-05-29T07:56:24;19.43;;;4.90;;
4353;SDS011;11018;51.258;6.806;2023-05-29T07:58:50;21.00;;;5.20;;
4353;SDS011;11018;51.258;6.806;2023-05-29T08:01:18;19.25;;;5.03;;
4353;SDS011;11018;51.258;6.806;2023-05-29T08:03:44;21.52;;;5.05;;
4353;SDS011;11018;51.258;6.806;2023-05-29T08:06:10;22.67;;;4.90;;
4353;SDS011;11018;51.258;6.806;2023-05-29T08:08:36;18.37;;;4.97;;
4353;SDS011;11018;51.258;6.806;2023-05-29T08:11:02;21.70;;;5.90;;
4353;SDS011;11018;51.258;6.806;2023-05-29T08:13:29;17.77;;;5.20;;
4353;SDS011;11018;51.258;6.806;2023-05-29T08:15:55;17.95;;;5.00;;
4353;SDS011;11018;51.258;6.806;2023-05-29T08:18:21;18.02;;;5.10;;
4353;SDS011;11018;51.258;6.806;2023-05-29T08:20:46;17.98;;;5.70;;
4353;SDS011;11018;51.258;6.806;2023-05-29T08:23:12;13.35;;;4.40;;
4353;SDS011;11018;51.258;6.806;2023-05-29T08:25:38;18.23;;;4.95;;
4353;SDS011;11018;51.258;6.806;2023-05-29T08:28:03;13.10;;;4.40;;
4353;SDS011;11018;51.258;6.806;2023-05-29T08:30:29;18.10;;;4.80;;
4353;SDS011;11018;51.258;6.806;2023-05-29T08:32:54;14.98;;;4.70;;
4353;SDS011;11018;51.258;6.806;2023-05-29T08:35:20;18.27;;;4.90;;
4353;SDS011;11018;51.258;6.806;2023-05-29T08:37:46;18.43;;;5.20;;
4353;SDS011;11018;51.258;6.806;2023-05-29T08:40:11;20.33;;;5.00;;
4353;SDS011;11018;51.258;6.806;2023-05-29T08:42:40;18.08;;;5.25;;
4353;SDS011;11018;51.258;6.806;2023-05-29T08:45:12;16.02;;;4.60;;
4353;SDS011;11018;51.258;6.806;2023-05-29T08:47:39;18.13;;;4.60;;
4353;SDS011;11018;51.258;6.806;2023-05-29T08:50:05;13.27;;;4.50;;
4353;SDS011;11018;51.258;6.806;2023-05-29T08:52:33;20.55;;;5.30;;
4353;SDS011;11018;51.258;6.806;2023-05-29T08:55:02;19.42;;;5.57;;
4353;SDS011;11018;51.258;6.806;2023-05-29T08:57:29;16.98;;;4.43;;
4353;SDS011;11018;51.258;6.806;2023-05-29T08:59:55;14.67;;;4.50;;
4353;SDS011;11018;51.258;6.806;2023-05-29T09:02:22;15.13;;;4.50;;
4353;SDS011;11018;51.258;6.806;2023-05-29T09:04:48;16.77;;;5.15;;
4353;SDS011;11018;51.258;6.806;2023-05-29T09:07:14;21.67;;;5.32;;
4353;SDS011;11018;51.258;6.806;2023-05-29T09:09:41;23.30;;;5.32;;
4353;SDS011;11018;51.258;6.806;2023-05-29T09:12:07;17.17;;;4.80;;
4353;SDS011;11018;51.258;6.806;2023-05-29T09:14:35;16.20;;;5.22;;
4353;SDS011;11018;51.258;6.806;2023-05-29T09:17:01;18.73;;;4.55;;
4353;SDS011;11018;51.258;6.806;2023-05-29T09:19:28;17.50;;;4.50;;
4353;SDS011;11018;51.258;6.806;2023-05-29T09:22:04;18.00;;;5.07;;
4353;SDS011;11018;51.258;6.806;2023-05-29T09:24:34;16.98;;;5.13;;
4353;SDS011;11018;51.258;6.806;2023-05-29T09:29:31;18.52;;;5.20;;
4353;SDS011;11018;51.258;6.806;2023-05-29T09:31:58;13.73;;;3.83;;
4353;SDS011;11018;51.258;6.806;2023-05-29T09:34:24;15.93;;;5.60;;
4353;SDS011;11018;51.258;6.806;2023-05-29T09:36:53;18.40;;;5.32;;
4353;SDS011;11018;51.258;6.806;2023-05-29T09:39:27;17.65;;;4.68;;
4353;SDS011;11018;51.258;6.806;2023-05-29T09:41:53;15.00;;;4.67;;
4353;SDS011;11018;51.258;6.806;2023-05-29T09:44:19;15.30;;;4.60;;
4353;SDS011;11018;51.258;6.806;2023-05-29T09:46:44;11.90;;;4.30;;
4353;SDS011;11018;51.258;6.806;2023-05-29T09:49:13;20.05;;;4.55;;
4353;SDS011;11018;51.258;6.806;2023-05-29T09:51:39;17.33;;;4.57;;
4353;SDS011;11018;51.258;6.806;2023-05-29T09:54:12;11.05;;;4.70;;
4353;SDS011;11018;51.258;6.806;2023-05-29T09:56:40;16.90;;;4.70;;
4353;SDS011;11018;51.258;6.806;2023-05-29T09:59:10;17.17;;;4.78;;
4353;SDS011;11018;51.258;6.806;2023-05-29T10:01:38;15.70;;;5.03;;
4353;SDS011;11018;51.258;6.806;2023-05-29T10:04:06;17.45;;;5.20;;
4353;SDS011;11018;51.258;6.806;2023-05-29T10:06:32;13.33;;;4.30;;
4353;SDS011;11018;51.258;6.806;2023-05-29T10:09:01;19.60;;;5.20;;
4353;SDS011;11018;51.258;6.806;2023-05-29T10:11:28;18.23;;;4.68;;
4353;SDS011;11018;51.258;6.806;2023-05-29T10:13:55;14.63;;;4.88;;
4353;SDS011;11018;51.258;6.806;2023-05-29T10:16:22;18.08;;;4.95;;
4353;SDS011;11018;51.258;6.806;2023-05-29T10:18:55;15.85;;;4.50;;
4353;SDS011;11018;51.258;6.806;2023-05-29T10:21:22;18.55;;;4.65;;
4353;SDS011;11018;51.258;6.806;2023-05-29T10:23:51;19.73;;;5.10;;
4353;SDS011;11018;51.258;6.806;2023-05-29T10:26:24;14.27;;;4.50;;
4353;SDS011;11018;51.258;6.806;2023-05-29T10:37:36;17.77;;;4.70;;
4353;SDS011;11018;51.258;6.806;2023-05-29T10:40:22;18.23;;;4.60;;
4353;SDS011;11018;51.258;6.806;2023-05-29T10:42:49;18.80;;;4.90;;
4353;SDS011;11018;51.258;6.806;2023-05-29T10:48:35;19.13;;;4.80;;
4353;SDS011;11018;51.258;6.806;2023-05-29T10:50:43;17.45;;;4.70;;
4353;SDS011;11018;51.258;6.806;2023-05-29T10:53:13;14.13;;;4.20;;
4353;SDS011;11018;51.258;6.806;2023-05-29T10:55:42;14.47;;;4.50;;
4353;SDS011;11018;51.258;6.806;2023-05-29T10:58:12;18.90;;;4.90;;
4353;SDS011;11018;51.258;6.806;2023-05-29T11:00:40;12.60;;;4.45;;
4353;SDS011;11018;51.258;6.806;2023-05-29T11:03:11;13.35;;;4.50;;
4353;SDS011;11018;51.258;6.806;2023-05-29T11:05:56;14.55;;;4.72;;
4353;SDS011;11018;51.258;6.806;2023-05-29T11:08:34;13.90;;;4.30;;
4353;SDS011;11018;51.258;6.806;2023-05-29T11:11:06;20.23;;;5.10;;
4353;SDS011;11018;51.258;6.806;2023-05-29T11:13:36;17.10;;;4.43;;
4353;SDS011;11018;51.258;6.806;2023-05-29T11:16:12;15.68;;;4.13;;
4353;SDS011;11018;51.258;6.806;2023-05-29T11:18:45;16.92;;;5.05;;
4353;SDS011;11018;51.258;6.806;2023-05-29T11:21:59;11.80;;;3.83;;
4353;SDS011;11018;51.258;6.806;2023-05-29T11:24:34;15.32;;;4.18;;
4353;SDS011;11018;51.258;6.806;2023-05-29T11:27:02;15.20;;;4.68;;
4353;SDS011;11018;51.258;6.806;2023-05-29T11:29:31;11.90;;;4.40;;
4353;SDS011;11018;51.258;6.806;2023-05-29T11:32:04;12.50;;;4.28;;
4353;SDS011;11018;51.258;6.806;2023-05-29T11:34:31;14.05;;;4.40;;
4353;SDS011;11018;51.258;6.806;2023-05-29T11:37:01;14.00;;;4.18;;
4353;SDS011;11018;51.258;6.806;2023-05-29T11:39:27;13.40;;;4.20;;
4353;SDS011;11018;51.258;6.806;2023-05-29T11:41:54;11.03;;;4.23;;
4353;SDS011;11018;51.258;6.806;2023-05-29T11:44:20;15.20;;;4.63;;
4353;SDS011;11018;51.258;6.806;2023-05-29T11:46:59;13.13;;;4.53;;
4353;SDS011;11018;51.258;6.806;2023-05-29T11:49:28;15.77;;;5.15;;
4353;SDS011;11018;51.258;6.806;2023-05-29T11:52:04;18.13;;;4.55;;
4353;SDS011;11018;51.258;6.806;2023-05-29T11:54:39;13.38;;;4.35;;
4353;SDS011;11018;51.258;6.806;2023-05-29T11:57:11;15.68;;;4.57;;
4353;SDS011;11018;51.258;6.806;2023-05-29T11:59:46;14.90;;;4.70;;
4353;SDS011;11018;51.258;6.806;2023-05-29T12:02:12;17.58;;;4.50;;
4353;SDS011;11018;51.258;6.806;2023-05-29T12:04:37;16.23;;;4.28;;
4353;SDS011;11018;51.258;6.806;2023-05-29T12:07:16;15.15;;;4.60;;
4353;SDS011;11018;51.258;6.806;2023-05-29T12:09:43;14.27;;;4.53;;
4353;SDS011;11018;51.258;6.806;2023-05-29T12:12:08;13.37;;;3.70;;
4353;SDS011;11018;51.258;6.806;2023-05-29T12:14:34;15.70;;;4.50;;
4353;SDS011;11018;51.258;6.806;2023-05-29T12:16:59;12.30;;;4.50;;
4353;SDS011;11018;51.258;6.806;2023-05-29T12:19:25;14.73;;;4.57;;
4353;SDS011;11018;51.258;6.806;2023-05-29T12:21:51;15.82;;;4.85;;
4353;SDS011;11018;51.258;6.806;2023-05-29T12:24:20;15.15;;;4.47;;
4353;SDS011;11018;51.258;6.806;2023-05-29T12:26:45;13.27;;;4.40;;
4353;SDS011;11018;51.258;6.806;2023-05-29T12:29:13;17.65;;;4.50;;
4353;SDS011;11018;51.258;6.806;2023-05-29T12:31:40;18.42;;;4.70;;
4353;SDS011;11018;51.258;6.806;2023-05-29T12:34:10;14.85;;;3.90;;
4353;SDS011;11018;51.258;6.806;2023-05-29T12:36:39;11.88;;;3.95;;
4353;SDS011;11018;51.258;6.806;2023-05-29T12:39:06;14.38;;;4.40;;
4353;SDS011;11018;51.258;6.806;2023-05-29T12:41:36;12.07;;;4.32;;
4353;SDS011;11018;51.258;6.806;2023-05-29T12:44:03;14.27;;;4.07;;
4353;SDS011;11018;51.258;6.806;2023-05-29T12:46:34;13.13;;;4.45;;
4353;SDS011;11018;51.258;6.806;2023-05-29T12:49:14;16.95;;;4.60;;
4353;SDS011;11018;51.258;6.806;2023-05-29T12:51:41;17.48;;;4.60;;
4353;SDS011;11018;51.258;6.806;2023-05-29T12:54:09;12.05;;;4.20;;
4353;SDS011;11018;51.258;6.806;2023-05-29T12:56:35;11.60;;;3.58;;
4353;SDS011;11018;51.258;6.806;2023-05-29T12:59:01;13.30;;;4.40;;
4353;SDS011;11018;51.258;6.806;2023-05-29T13:01:26;15.60;;;4.10;;
4353;SDS011;11018;51.258;6.806;2023-05-29T13:03:52;14.38;;;4.10;;
4353;SDS011;11018;51.258;6.806;2023-05-29T13:06:17;10.20;;;3.80;;
4353;SDS011;11018;51.258;6.806;2023-05-29T13:08:43;11.90;;;4.40;;
4353;SDS011;11018;51.258;6.806;2023-05-29T13:11:08;14.95;;;4.30;;
4353;SDS011;11018;51.258;6.806;2023-05-29T13:13:34;17.37;;;4.00;;
4353;SDS011;11018;51.258;6.806;2023-05-29T13:16:00;10.93;;;4.20;;
4353;SDS011;11018;51.258;6.806;2023-05-29T13:18:25;13.70;;;4.20;;
4353;SDS011;11018;51.258;6.806;2023-05-29T13:20:51;13.13;;;3.80;;
4353;SDS011;11018;51.258;6.806;2023-05-29T13:23:17;16.50;;;4.50;;
4353;SDS011;11018;51.258;6.806;2023-05-29T13:25:42;7.57;;;3.93;;
4353;SDS011;11018;51.258;6.806;2023-05-29T13:28:08;15.10;;;4.30;;
4353;SDS011;11018;51.258;6.806;2023-05-29T13:30:33;10.77;;;3.50;;
4353;SDS011;11018;51.258;6.806;2023-05-29T13:32:59;11.70;;;4.00;;
4353;SDS011;11018;51.258;6.806;2023-05-29T13:35:24;12.68;;;4.50;;
4353;SDS011;11018;51.258;6.806;2023-05-29T13:37:50;13.10;;;3.80;;
4353;SDS011;11018;51.258;6.806;2023-05-29T13:40:15;13.43;;;4.50;;
4353;SDS011;11018;51.258;6.806;2023-05-29T13:42:41;12.90;;;3.90;;
4353;SDS011;11018;51.258;6.806;2023-05-29T13:45:07;13.30;;;3.75;;
4353;SDS011;11018;51.258;6.806;2023-05-29T13:47:34;11.53;;;3.77;;
4353;SDS011;11018;51.258;6.806;2023-05-29T13:50:00;11.50;;;3.85;;
4353;SDS011;11018;51.258;6.806;2023-05-29T13:52:26;11.93;;;3.63;;
4353;SDS011;11018;51.258;6.806;2023-05-29T13:54:52;15.82;;;4.30;;
4353;SDS011;11018;51.258;6.806;2023-05-29T13:57:17;11.50;;;3.75;;
4353;SDS011;11018;51.258;6.806;2023-05-29T13:59:43;14.20;;;4.43;;
4353;SDS011;11018;51.258;6.806;2023-05-29T14:02:09;10.48;;;3.88;;
4353;SDS011;11018;51.258;6.806;2023-05-29T14:04:36;6.47;;;3.00;;
4353;SDS011;11018;51.258;6.806;2023-05-29T14:07:03;10.02;;;3.47;;
4353;SDS011;11018;51.258;6.806;2023-05-29T14:09:29;16.23;;;4.20;;
4353;SDS011;11018;51.258;6.806;2023-05-29T14:11:55;12.50;;;4.10;;
4353;SDS011;11018;51.258;6.806;2023-05-29T14:14:22;16.85;;;3.92;;
4353;SDS011;11018;51.258;6.806;2023-05-29T14:16:48;6.70;;;3.30;;
4353;SDS011;11018;51.258;6.806;2023-05-29T14:19:15;9.05;;;3.50;;
4353;SDS011;11018;51.258;6.806;2023-05-29T14:21:40;10.15;;;3.85;;
4353;SDS011;11018;51.258;6.806;2023-05-29T14:24:06;11.53;;;4.27;;
4353;SDS011;11018;51.258;6.806;2023-05-29T14:26:32;16.87;;;4.30;;
4353;SDS011;11018;51.258;6.806;2023-05-29T14:28:58;12.40;;;4.00;;
4353;SDS011;11018;51.258;6.806;2023-05-29T14:31:23;10.95;;;3.92;;
4353;SDS011;11018;51.258;6.806;2023-05-29T14:33:49;12.55;;;3.92;;
4353;SDS011;11018;51.258;6.806;2023-05-29T14:36:14;13.90;;;4.17;;
4353;SDS011;11018;51.258;6.806;2023-05-29T14:38:40;14.07;;;4.40;;
4353;SDS011;11018;51.258;6.806;2023-05-29T14:41:07;10.55;;;3.88;;
4353;SDS011;11018;51.258;6.806;2023-05-29T14:43:33;11.43;;;4.13;;
4353;SDS011;11018;51.258;6.806;2023-05-29T14:45:58;11.20;;;3.80;;
4353;SDS011;11018;51.258;6.806;2023-05-29T14:48:24;11.07;;;4.60;;
4353;SDS011;11018;51.258;6.806;2023-05-29T14:50:49;10.23;;;4.00;;
4353;SDS011;11018;51.258;6.806;2023-05-29T14:53:15;14.80;;;4.50;;
4353;SDS011;11018;51.258;6.806;2023-05-29T14:55:40;16.30;;;4.13;;
4353;SDS011;11018;51.258;6.806;2023-05-29T14:58:06;10.67;;;3.60;;
4353;SDS011;11018;51.258;6.806;2023-05-29T15:00:31;13.77;;;4.20;;
4353;SDS011;11018;51.258;6.806;2023-05-29T15:02:57;14.47;;;4.70;;